Cupar, United Kingdom
Current Conditions -  °F | °C
As of 10:50 PM on Tuesday 25 Nov 2014 (Local Time) from EGQL Reporting Station
Haze Haze  
Wind Chill: 43°   Ceiling: 3900
Heat Index: 43°   Visibility: 1.5mi
Dew Point: 43°   Wind: 2mph
Humidity: 100%   Direction: 10°N
Pressure: 30.12"   Gusts: NA
Location:  56.32°N, 3.01°W
Report Text: EGQL 252250Z 01002KT 2400 BR OVC039 06/06 Q1020 YLO2
Loading
Personal Weather Stations






























Interactive Weather Map New forecast layout! Learn more

10-Day Weather Forecast

Advertisements
Track Severe Weather on mobile